Stark, New Hampshire
Current Conditions -  °F | °C
As of 9:52 AM on Friday 19 Dec 2014 (Local Time) from KBML Reporting Station
Overcast Overcast  
Wind Chill: 19°   Ceiling: 1900
Heat Index: 25°   Visibility: 10mi
Dew Point: 17°   Wind: 5mph
Humidity: 72%   Direction: 320°NW
Pressure: 29.95"   Gusts: NA
Location:  44.6154°N, 71.467°W
Report Text: KBML 191452Z AUTO 32004KT 10SM OVC019 M04/M08 A2995 RMK AO2 SLP158 T10391083 51024 $
Loading
Personal Weather Stations






























Interactive Weather Map New forecast layout! Learn more

10-Day Weather Forecast

Advertisements
Track Severe Weather on mobile